createdAt,value
2023-05-12T00:00:07.721Z,10.95
2023-05-12T00:03:18.015Z,5.82
2023-05-12T00:06:21.652Z,6.93
2023-05-12T00:09:24.602Z,8.98
2023-05-12T00:12:27.588Z,7.30
2023-05-12T00:15:30.547Z,9.05
2023-05-12T00:18:33.478Z,6.45
2023-05-12T00:21:36.565Z,5.70
2023-05-12T00:24:42.348Z,7.43
2023-05-12T00:27:45.281Z,6.93
2023-05-12T00:30:48.253Z,6.28
2023-05-12T00:33:51.233Z,6.32
2023-05-12T00:36:54.201Z,6.53
2023-05-12T00:39:57.202Z,6.97
2023-05-12T00:43:00.200Z,6.82
2023-05-12T00:46:04.385Z,6.15
2023-05-12T00:49:07.897Z,5.13
2023-05-12T00:52:10.842Z,6.37
2023-05-12T00:55:14.426Z,6.35
2023-05-12T00:58:17.396Z,7.07
2023-05-12T01:01:20.528Z,5.95
2023-05-12T01:04:26.214Z,7.18
2023-05-12T01:07:31.395Z,6.50
2023-05-12T01:10:34.813Z,7.00
2023-05-12T01:13:39.540Z,6.10
2023-05-12T01:16:54.389Z,8.48
2023-05-12T01:19:58.866Z,6.07
2023-05-12T01:23:01.824Z,9.00
2023-05-12T01:26:09.023Z,5.95
2023-05-12T01:29:13.254Z,6.63
2023-05-12T01:32:16.891Z,5.80
2023-05-12T01:35:20.007Z,5.97
2023-05-12T01:38:30.907Z,6.23
2023-05-12T01:41:33.893Z,5.70
2023-05-12T01:44:37.011Z,7.20
2023-05-12T01:47:39.986Z,8.15
2023-05-12T01:50:44.686Z,6.40
2023-05-12T01:53:52.394Z,6.93
2023-05-12T01:56:55.417Z,6.68
2023-05-12T01:59:58.493Z,7.32
2023-05-12T02:03:01.566Z,6.85
2023-05-12T02:06:04.954Z,7.32
2023-05-12T02:09:08.188Z,7.20
2023-05-12T02:12:11.254Z,7.88
2023-05-12T02:15:14.179Z,7.13
2023-05-12T02:18:21.087Z,8.32
2023-05-12T02:21:24.072Z,6.97
2023-05-12T02:24:29.200Z,6.93
2023-05-12T02:27:32.613Z,7.55
2023-05-12T02:30:35.871Z,7.35
2023-05-12T02:33:39.488Z,6.90
2023-05-12T02:36:42.531Z,7.45
2023-05-12T02:39:45.528Z,7.50
2023-05-12T02:42:48.491Z,7.88
2023-05-12T02:45:51.952Z,6.53
2023-05-12T02:48:57.388Z,6.97
2023-05-12T02:52:00.364Z,6.85
2023-05-12T02:55:03.459Z,6.50
2023-05-12T02:58:06.425Z,6.93
2023-05-12T03:01:11.308Z,7.40
2023-05-12T03:04:16.732Z,7.10
2023-05-12T03:07:19.724Z,8.10
2023-05-12T03:10:22.959Z,6.80
2023-05-12T03:13:26.177Z,8.10
2023-05-12T03:16:29.207Z,11.30
2023-05-12T03:19:32.318Z,8.35
2023-05-12T03:22:35.311Z,9.32
2023-05-12T03:25:38.602Z,6.30
2023-05-12T03:28:41.636Z,6.10
2023-05-12T03:31:44.732Z,6.68
2023-05-12T03:34:47.855Z,7.22
2023-05-12T03:37:51.691Z,8.13
2023-05-12T03:41:04.810Z,6.67
2023-05-12T03:44:08.676Z,9.70
2023-05-12T03:47:11.752Z,8.68
2023-05-12T03:50:14.823Z,6.93
2023-05-12T03:53:17.869Z,8.82
2023-05-12T03:56:20.809Z,8.00
2023-05-12T03:59:23.951Z,6.55
2023-05-12T04:02:27.458Z,6.95
2023-05-12T04:05:30.526Z,10.20
2023-05-12T04:08:33.792Z,9.55
2023-05-12T04:11:37.093Z,9.03
2023-05-12T04:14:43.252Z,6.78
2023-05-12T04:17:46.558Z,8.15
2023-05-12T04:20:49.606Z,7.20
2023-05-12T04:23:53.003Z,7.43
2023-05-12T04:26:58.128Z,7.37
2023-05-12T04:30:01.783Z,8.63
2023-05-12T04:33:08.253Z,9.25
2023-05-12T04:36:13.786Z,13.20
2023-05-12T04:39:17.374Z,9.20
2023-05-12T04:42:20.792Z,7.80
2023-05-12T04:45:23.877Z,8.98
2023-05-12T04:48:31.395Z,9.32
2023-05-12T04:51:34.502Z,7.05
2023-05-12T04:54:39.054Z,7.80
2023-05-12T04:57:42.607Z,8.47
2023-05-12T05:00:47.016Z,9.02
2023-05-12T05:03:50.330Z,7.10
2023-05-12T05:06:55.598Z,6.53
2023-05-12T05:09:59.293Z,7.15
2023-05-12T05:13:02.668Z,9.10
2023-05-12T05:16:06.760Z,7.00
2023-05-12T05:19:20.117Z,11.30
2023-05-12T05:22:29.069Z,9.48
2023-05-12T05:25:32.152Z,7.50
2023-05-12T05:28:36.626Z,7.73
2023-05-12T05:31:39.721Z,7.30
2023-05-12T05:34:43.205Z,8.85
2023-05-12T05:37:47.266Z,11.05
2023-05-12T05:40:54.165Z,10.23
2023-05-12T05:43:58.349Z,8.23
2023-05-12T05:47:03.217Z,10.20
2023-05-12T05:50:07.160Z,7.78
2023-05-12T05:53:12.666Z,9.07
2023-05-12T05:56:15.840Z,8.20
2023-05-12T05:59:18.867Z,6.80
2023-05-12T06:02:25.143Z,6.95
2023-05-12T06:05:28.425Z,7.38
2023-05-12T06:08:31.712Z,7.00
2023-05-12T06:11:34.831Z,7.82
2023-05-12T06:14:37.819Z,7.80
2023-05-12T06:17:41.336Z,9.70
2023-05-12T06:20:44.950Z,7.53
2023-05-12T06:23:48.011Z,8.80
2023-05-12T06:26:51.102Z,8.38
2023-05-12T06:29:54.080Z,7.77
2023-05-12T06:32:57.063Z,8.65
2023-05-12T06:36:00.236Z,6.40
2023-05-12T06:39:04.426Z,7.63
2023-05-12T06:42:07.535Z,7.82
2023-05-12T06:45:17.391Z,7.80
2023-05-12T06:48:20.820Z,7.35
2023-05-12T06:51:23.819Z,8.35
2023-05-12T06:54:26.842Z,10.63
2023-05-12T06:57:29.897Z,10.95
2023-05-12T07:00:32.957Z,10.50
2023-05-12T07:03:36.153Z,11.38
2023-05-12T07:06:40.364Z,8.38
2023-05-12T07:09:45.240Z,10.63
2023-05-12T07:12:48.213Z,9.82
2023-05-12T07:15:52.958Z,8.40
2023-05-12T07:18:56.178Z,10.43
2023-05-12T07:21:59.294Z,11.50
2023-05-12T07:25:02.270Z,7.10
2023-05-12T07:28:05.330Z,9.50
2023-05-12T07:31:08.591Z,9.43
2023-05-12T07:34:11.798Z,7.35
2023-05-12T07:37:14.799Z,7.95
2023-05-12T07:40:18.013Z,10.32
2023-05-12T07:43:21.160Z,8.18
2023-05-12T07:46:24.161Z,8.37
2023-05-12T07:49:27.247Z,7.45
2023-05-12T07:52:30.280Z,7.60
2023-05-12T07:55:36.283Z,7.63
2023-05-12T07:58:39.222Z,9.65
2023-05-12T08:01:42.933Z,9.70
2023-05-12T08:04:47.652Z,8.43
2023-05-12T08:07:50.795Z,12.50
2023-05-12T08:10:53.748Z,9.02
2023-05-12T08:13:56.713Z,9.00
2023-05-12T08:16:59.929Z,8.63
2023-05-12T08:20:06.732Z,10.82
2023-05-12T08:23:10.699Z,8.60
2023-05-12T08:26:13.658Z,7.97
2023-05-12T08:29:16.765Z,8.23
2023-05-12T08:32:19.890Z,8.97
2023-05-12T08:35:24.592Z,8.65
2023-05-12T08:38:27.662Z,9.23
2023-05-12T08:42:04.373Z,11.45
2023-05-12T08:45:08.148Z,8.30
2023-05-12T08:48:11.488Z,10.03
2023-05-12T08:51:14.885Z,8.45
2023-05-12T08:54:18.129Z,8.35
2023-05-12T08:57:22.001Z,7.70
2023-05-12T09:00:25.969Z,9.32
2023-05-12T09:03:29.472Z,8.63
2023-05-12T09:06:33.030Z,13.27
2023-05-12T09:09:36.978Z,8.82
2023-05-12T09:12:39.912Z,9.15
2023-05-12T09:15:44.848Z,10.82
2023-05-12T09:18:55.901Z,9.87
2023-05-12T09:21:59.805Z,8.20
2023-05-12T09:25:14.830Z,7.90
2023-05-12T09:28:18.024Z,8.88
2023-05-12T09:31:23.840Z,9.63
2023-05-12T09:34:31.155Z,8.13
2023-05-12T09:37:35.427Z,9.77
2023-05-12T09:40:38.686Z,9.30
2023-05-12T09:43:47.667Z,8.75
2023-05-12T09:46:51.488Z,11.43
2023-05-12T09:49:56.693Z,10.00
2023-05-12T09:53:02.493Z,10.00
2023-05-12T09:56:05.547Z,9.73
2023-05-12T09:59:08.526Z,11.15
2023-05-12T10:02:11.565Z,10.48
2023-05-12T10:05:21.596Z,11.07
2023-05-12T10:08:34.320Z,11.02
2023-05-12T10:11:37.288Z,10.43
2023-05-12T10:14:40.280Z,8.70
2023-05-12T10:17:43.399Z,10.57
2023-05-12T10:20:46.686Z,8.83
2023-05-12T10:23:49.819Z,9.57
2023-05-12T10:26:53.316Z,9.23
2023-05-12T10:29:56.367Z,9.68
2023-05-12T10:32:59.766Z,10.98
2023-05-12T10:36:04.026Z,12.17
2023-05-12T10:39:07.494Z,10.02
2023-05-12T10:42:10.933Z,10.85
2023-05-12T10:45:21.326Z,12.48
2023-05-12T10:48:27.180Z,9.48
2023-05-12T10:51:54.198Z,9.33
2023-05-12T10:55:07.074Z,8.18
2023-05-12T10:58:13.225Z,10.60
2023-05-12T11:01:25.219Z,9.52
2023-05-12T11:04:45.615Z,8.52
2023-05-12T11:07:52.854Z,8.43
2023-05-12T11:10:59.358Z,11.15
2023-05-12T11:14:02.725Z,9.10
2023-05-12T11:17:05.837Z,10.02
2023-05-12T11:20:11.978Z,12.88
2023-05-12T11:23:25.388Z,11.40
2023-05-12T11:26:29.333Z,9.30
2023-05-12T11:29:32.675Z,10.40
2023-05-12T11:32:35.690Z,10.98
2023-05-12T11:35:38.744Z,10.40
2023-05-12T11:38:48.159Z,8.90
2023-05-12T11:41:54.705Z,9.70
2023-05-12T11:45:02.464Z,10.63
2023-05-12T11:48:12.927Z,9.65
2023-05-12T11:51:16.016Z,11.30
2023-05-12T11:54:19.082Z,10.30
2023-05-12T11:57:33.032Z,12.30
2023-05-12T12:00:36.131Z,12.48
2023-05-12T12:03:50.828Z,10.57
2023-05-12T12:06:53.860Z,10.75
2023-05-12T12:09:56.873Z,10.33
2023-05-12T12:13:01.567Z,10.10
2023-05-12T12:16:07.188Z,9.73
2023-05-12T12:19:10.305Z,12.55
2023-05-12T12:22:13.356Z,9.98
2023-05-12T12:25:16.319Z,9.80
2023-05-12T12:28:19.718Z,10.15
2023-05-12T12:31:22.911Z,8.20
2023-05-12T12:34:26.042Z,9.70
2023-05-12T12:37:29.061Z,8.80
2023-05-12T12:40:32.317Z,8.37
2023-05-12T12:43:35.247Z,10.75
2023-05-12T12:46:38.301Z,9.68
2023-05-12T12:49:41.279Z,9.07
2023-05-12T12:52:44.610Z,7.72
2023-05-12T12:55:47.612Z,7.07
2023-05-12T12:58:50.594Z,8.30
2023-05-12T13:01:54.058Z,6.70
2023-05-12T13:04:57.105Z,7.00
2023-05-12T13:08:00.209Z,8.63
2023-05-12T13:11:03.234Z,7.00
2023-05-12T13:14:06.919Z,7.90
2023-05-12T13:17:10.147Z,8.57
2023-05-12T13:20:14.170Z,7.20
2023-05-12T13:23:17.145Z,8.40
2023-05-12T13:26:20.083Z,8.33
2023-05-12T13:29:23.127Z,8.00
2023-05-12T13:32:26.099Z,7.65
2023-05-12T13:35:29.020Z,8.85
2023-05-12T13:38:32.529Z,6.72
2023-05-12T13:41:35.656Z,8.33
2023-05-12T13:44:38.603Z,8.57
2023-05-12T13:47:41.702Z,9.05
2023-05-12T13:50:44.684Z,7.35
2023-05-12T13:53:47.753Z,6.97
2023-05-12T13:56:50.764Z,7.67
2023-05-12T13:59:55.052Z,8.88
2023-05-12T14:02:58.133Z,8.68
2023-05-12T14:06:01.429Z,7.47
2023-05-12T14:09:07.676Z,8.48
2023-05-12T14:12:10.873Z,6.97
2023-05-12T14:15:26.601Z,12.93
2023-05-12T14:18:37.662Z,7.82
2023-05-12T14:21:41.272Z,8.20
2023-05-12T14:24:44.236Z,7.78
2023-05-12T14:27:47.195Z,8.80
2023-05-12T14:30:50.572Z,8.75
2023-05-12T14:33:53.608Z,10.00
2023-05-12T14:36:56.590Z,9.63
2023-05-12T14:39:59.603Z,10.25
2023-05-12T14:43:03.441Z,10.73
2023-05-12T14:46:07.282Z,10.65
2023-05-12T14:49:12.360Z,9.82
2023-05-12T14:52:15.875Z,7.28
2023-05-12T14:55:19.142Z,9.40
2023-05-12T14:58:28.609Z,12.07
2023-05-12T15:01:31.631Z,10.95
2023-05-12T15:04:34.634Z,10.07
2023-05-12T15:07:37.763Z,10.02
2023-05-12T15:10:40.828Z,8.63
2023-05-12T15:13:43.885Z,9.33
2023-05-12T15:16:46.942Z,7.53
2023-05-12T15:19:50.340Z,7.53
2023-05-12T15:22:56.043Z,7.18
2023-05-12T15:26:03.272Z,8.55
2023-05-12T15:29:09.995Z,7.83
2023-05-12T15:32:13.009Z,9.30
2023-05-12T15:35:16.255Z,7.28
2023-05-12T15:38:19.556Z,8.52
2023-05-12T15:41:23.281Z,9.00
2023-05-12T15:44:26.572Z,8.97
2023-05-12T15:47:29.838Z,10.18
2023-05-12T15:50:33.266Z,11.32
2023-05-12T15:53:36.374Z,15.70
2023-05-12T15:56:39.330Z,9.35
2023-05-12T15:59:42.331Z,10.60
2023-05-12T16:02:45.505Z,9.02
2023-05-12T16:05:48.883Z,10.13
2023-05-12T16:08:52.476Z,10.63
2023-05-12T16:11:57.406Z,9.90
2023-05-12T16:15:00.364Z,10.00
2023-05-12T16:18:03.558Z,9.65
2023-05-12T16:21:06.606Z,11.00
2023-05-12T16:24:09.940Z,11.73
2023-05-12T16:27:12.910Z,10.02
2023-05-12T16:30:18.467Z,11.33
2023-05-12T16:33:23.389Z,10.77
2023-05-12T16:36:26.451Z,11.93
2023-05-12T16:39:32.327Z,12.45
2023-05-12T16:42:35.311Z,14.05
2023-05-12T16:45:38.336Z,15.83
2023-05-12T16:48:41.376Z,12.55
2023-05-12T16:51:44.445Z,10.68
2023-05-12T16:54:47.923Z,11.15
2023-05-12T16:57:51.122Z,12.90
2023-05-12T17:00:54.598Z,13.30
2023-05-12T17:03:57.757Z,12.63
2023-05-12T17:07:01.243Z,9.95
2023-05-12T17:10:04.389Z,10.35
2023-05-12T17:13:07.497Z,10.05
2023-05-12T17:16:10.495Z,10.27
2023-05-12T17:19:14.064Z,11.73
2023-05-12T17:22:17.451Z,10.18
2023-05-12T17:25:20.961Z,11.20
2023-05-12T17:28:24.113Z,11.82
2023-05-12T17:31:27.143Z,9.97
2023-05-12T17:34:30.186Z,9.95
2023-05-12T17:37:33.759Z,10.70
2023-05-12T17:40:36.932Z,9.98
2023-05-12T17:43:39.909Z,14.65
2023-05-12T17:46:43.449Z,10.30
2023-05-12T17:49:46.429Z,12.10
2023-05-12T17:52:49.414Z,10.60
2023-05-12T17:55:52.480Z,10.32
2023-05-12T17:58:55.673Z,9.98
2023-05-12T18:01:59.050Z,9.80
2023-05-12T18:05:02.076Z,10.68
2023-05-12T18:08:06.081Z,10.20
2023-05-12T18:11:09.054Z,10.05
2023-05-12T18:14:11.982Z,8.82
2023-05-12T18:17:15.406Z,9.77
2023-05-12T18:20:19.008Z,10.73
2023-05-12T18:23:22.011Z,9.63
2023-05-12T18:26:25.017Z,9.98
2023-05-12T18:29:28.010Z,10.15
2023-05-12T18:32:31.641Z,10.10
2023-05-12T18:35:35.050Z,9.02
2023-05-12T18:38:37.995Z,10.20
2023-05-12T18:41:40.938Z,11.05
2023-05-12T18:44:43.904Z,8.82
2023-05-12T18:47:46.864Z,10.73
2023-05-12T18:50:49.857Z,10.15
2023-05-12T18:53:52.825Z,11.68
2023-05-12T18:56:55.866Z,12.43
2023-05-12T18:59:58.813Z,11.30
2023-05-12T19:03:04.932Z,10.93
2023-05-12T19:06:07.960Z,10.50
2023-05-12T19:09:11.022Z,9.77
2023-05-12T19:12:13.959Z,10.32
2023-05-12T19:15:16.977Z,9.35
2023-05-12T19:18:20.063Z,11.53
2023-05-12T19:21:23.172Z,9.63
2023-05-12T19:24:27.113Z,10.13
2023-05-12T19:27:30.477Z,10.70
2023-05-12T19:30:34.100Z,10.32
2023-05-12T19:33:37.044Z,11.00
2023-05-12T19:36:40.112Z,9.13
2023-05-12T19:39:43.117Z,10.98
2023-05-12T19:42:46.101Z,9.75
2023-05-12T19:45:49.069Z,10.38
2023-05-12T19:48:52.799Z,10.20
2023-05-12T19:51:55.875Z,9.68
2023-05-12T19:54:58.833Z,9.98
2023-05-12T19:58:02.086Z,9.82
2023-05-12T20:01:06.101Z,9.90
2023-05-12T20:04:09.215Z,9.73
2023-05-12T20:07:12.349Z,10.68
2023-05-12T20:10:15.387Z,11.70
2023-05-12T20:13:18.307Z,11.27
2023-05-12T20:16:21.325Z,11.13
2023-05-12T20:19:24.314Z,10.67
2023-05-12T20:22:27.247Z,11.27
2023-05-12T20:25:33.122Z,11.35
2023-05-12T20:28:36.513Z,11.45
2023-05-12T20:31:39.541Z,11.32
2023-05-12T20:34:42.881Z,12.97
2023-05-12T20:37:45.862Z,10.43
2023-05-12T20:40:48.861Z,11.95
2023-05-12T20:43:51.807Z,10.02
2023-05-12T20:46:55.072Z,11.50
2023-05-12T20:49:58.744Z,12.03
2023-05-12T20:53:01.752Z,13.65
2023-05-12T20:56:04.729Z,11.52
2023-05-12T20:59:07.747Z,11.20
2023-05-12T21:02:10.846Z,13.23
2023-05-12T21:05:13.914Z,11.87
2023-05-12T21:08:16.980Z,13.70
2023-05-12T21:11:19.929Z,11.48
2023-05-12T21:14:23.016Z,11.95
2023-05-12T21:17:26.040Z,14.45
2023-05-12T21:20:28.977Z,12.10
2023-05-12T21:23:31.997Z,13.25
2023-05-12T21:26:34.993Z,14.13
2023-05-12T21:29:38.000Z,11.82
2023-05-12T21:32:40.995Z,12.13
2023-05-12T21:35:43.986Z,12.57
2023-05-12T21:38:46.972Z,12.43
2023-05-12T21:41:49.978Z,12.10
2023-05-12T21:44:53.017Z,14.07
2023-05-12T21:47:56.245Z,13.13
2023-05-12T21:51:02.740Z,11.50
2023-05-12T21:54:05.779Z,12.77
2023-05-12T21:57:08.707Z,14.35
2023-05-12T22:00:14.444Z,12.27
2023-05-12T22:03:20.353Z,13.15
2023-05-12T22:06:23.389Z,12.87
2023-05-12T22:09:26.357Z,12.57
2023-05-12T22:12:29.296Z,13.07
2023-05-12T22:15:32.434Z,13.95
2023-05-12T22:18:35.659Z,13.80
2023-05-12T22:21:38.652Z,14.37
2023-05-12T22:24:41.650Z,13.85
2023-05-12T22:27:44.703Z,15.43
2023-05-12T22:30:47.632Z,13.50
2023-05-12T22:33:51.020Z,14.85
2023-05-12T22:36:53.980Z,12.93
2023-05-12T22:39:57.016Z,12.45
2023-05-12T22:43:00.064Z,10.93
2023-05-12T22:46:04.525Z,11.07
2023-05-12T22:49:07.518Z,11.27
2023-05-12T22:52:10.493Z,11.87
2023-05-12T22:55:13.459Z,10.90
2023-05-12T22:58:16.447Z,11.18
2023-05-12T23:01:19.514Z,14.85
2023-05-12T23:04:22.625Z,12.00
2023-05-12T23:07:25.826Z,12.40
2023-05-12T23:10:28.767Z,10.65
2023-05-12T23:13:31.663Z,10.10
2023-05-12T23:16:34.608Z,10.18
2023-05-12T23:19:37.903Z,10.50
2023-05-12T23:22:40.858Z,11.23
2023-05-12T23:25:43.826Z,11.10
2023-05-12T23:28:46.763Z,11.77
2023-05-12T23:31:49.764Z,11.73
2023-05-12T23:34:52.775Z,11.20
2023-05-12T23:37:55.812Z,10.63
2023-05-12T23:40:58.919Z,10.85
2023-05-12T23:44:02.432Z,10.48
2023-05-12T23:47:05.731Z,10.88
2023-05-12T23:50:09.266Z,11.32
2023-05-12T23:53:12.314Z,9.67
2023-05-12T23:56:15.498Z,11.25
2023-05-12T23:59:18.484Z,11.70
